Hiyoshi Maru No21 — JK5518 — position and weather

sailwx.info

Track history (hours):
 
Tides and Currents Weather Stations Pressure Air Temp Water Temp Dewpoint Dewpoint Depression Visibility Wind Speed Wind Dir Waves Ship Positions

Hiyoshi Maru No21

Last reported at 2018-Feb-24 09:41 UTC. Time now 2018-Feb-24 14:38 UTC.
Position N 33°52' E 135°00'.

Length 72 m; draft 4 m.

Type: Tanker. MMSI: 432294000.

Date/timePositionNaut miles runAvg speedWind from/ knotsBaromVisibWave heightAir tempDewpointWater temp
2018-Feb-24 09:41N 33°52' E 135°00'312.8
2018-Feb-24 09:27N 33°54' E 134°58'612.7
2018-Feb-24 09:00N 33°58' E 134°54'612.8
2018-Feb-24 08:30N 34°03' E 134°49'713.0
2018-Feb-24 08:00N 34°09' E 134°44'714.0
2018-Feb-24 07:30N 34°14' E 134°39'612.1
2018-Feb-24 07:00N 34°18' E 134°33'612.2
2018-Feb-24 06:30N 34°20' E 134°26'7 0.2
2018-Feb-23 02:19N 34°18' E 134°34'412.4
2018-Feb-23 02:00N 34°16' E 134°38'912.5
2018-Feb-23 01:19N 34°09' E 134°43'411.5
2018-Feb-23 01:00N 34°06' E 134°46'611.6
2018-Feb-23 00:29N 34°02' E 134°51'611.6
2018-Feb-23 00:00N 33°58' E 134°55'611.7
2018-Feb-22 23:29N 33°53' E 135°00'103 7.9
2018-Feb-22 10:31N 34°38' E 136°52'011.1
2018-Feb-22 10:30N 34°39' E 136°52'711.7
2018-Feb-22 09:55N 34°44' E 136°47'511.9
2018-Feb-22 09:31N 34°49' E 136°45'611.9
2018-Feb-22 09:00N 34°54' E 136°43'5 9.5
2018-Feb-22 08:30N 34°59' E 136°40'0 0.1
2018-Feb-22 08:00N 34°59' E 136°40'0 0.0
2018-Feb-22 07:30N 34°59' E 136°40'0 0.0
2018-Feb-22 07:01N 34°59' E 136°40'0 0.0
2018-Feb-22 06:30N 34°59' E 136°40'0 0.0
2018-Feb-22 06:00N 34°59' E 136°40'0 0.0
2018-Feb-22 05:30N 34°59' E 136°40'0 0.0
2018-Feb-22 05:00N 34°59' E 136°40'0 0.0
2018-Feb-22 04:31N 34°59' E 136°40'0 0.0
2018-Feb-22 04:01N 34°59' E 136°40'1 1.7
2018-Feb-22 03:31N 34°58' E 136°40'0 0.7
2018-Feb-22 03:00N 34°58' E 136°40'0 0.0
2018-Feb-22 02:30N 34°58' E 136°40'0 0.0
2018-Feb-22 02:00N 34°58' E 136°40'0 0.0
2018-Feb-22 01:30N 34°58' E 136°40'0 0.0
2018-Feb-22 01:00N 34°58' E 136°40'0 0.0
2018-Feb-22 00:30N 34°58' E 136°40'0 0.0
2018-Feb-22 00:01N 34°58' E 136°40'0 0.0
2018-Feb-21 23:30N 34°58' E 136°40'0 0.9
2018-Feb-21 23:00N 34°57' E 136°41'611.7
2018-Feb-21 22:30N 34°52' E 136°44'612.4
2018-Feb-21 22:00N 34°46' E 136°47'612.1
2018-Feb-21 21:31N 34°41' E 136°51'103 8.0
2018-Feb-21 08:35N 33°52' E 135°01'113.1
2018-Feb-21 08:29N 33°53' E 134°60'612.4
2018-Feb-21 08:01N 33°57' E 134°55'712.7
2018-Feb-21 07:26N 34°02' E 134°49'612.8
2018-Feb-21 06:59N 34°07' E 134°45'613.8
2018-Feb-21 06:31N 34°12' E 134°40'713.2
2018-Feb-21 06:00N 34°17' E 134°35'612.4
2018-Feb-21 05:30N 34°19' E 134°28'612.2
2018-Feb-21 05:00N 34°21' E 134°21'4 0.3
2018-Feb-20 11:47N 34°20' E 134°26'412.1
2018-Feb-20 11:26N 34°19' E 134°31'512.6
2018-Feb-20 11:00N 34°17' E 134°37'712.1
2018-Feb-20 10:24N 34°11' E 134°41'512.0
2018-Feb-20 09:59N 34°07' E 134°45'612.0
2018-Feb-20 09:30N 34°03' E 134°50'611.9
2018-Feb-20 09:00N 33°58' E 134°55'611.7
2018-Feb-20 08:30N 33°54' E 134°60'184 9.9
2018-Feb-19 13:57N 34°32' E 138°37'610.5
2018-Feb-19 13:24N 34°33' E 138°44'510.5
2018-Feb-19 12:56N 34°33' E 138°50'4 9.8
2018-Feb-19 12:30N 34°33' E 138°55'610.2
2018-Feb-19 11:58N 34°36' E 139°01'612.3
2018-Feb-19 11:28N 34°41' E 139°05'612.5
2018-Feb-19 11:00N 34°46' E 139°10'812.0
2018-Feb-19 10:18N 34°52' E 139°16'411.4
2018-Feb-19 09:55N 34°55' E 139°20'811.4
2018-Feb-19 09:15N 34°59' E 139°28'410.9
2018-Feb-19 08:53N 35°02' E 139°32'411.4
2018-Feb-19 08:30N 35°04' E 139°36'611.9
2018-Feb-19 08:00N 35°07' E 139°42'611.8
2018-Feb-19 07:29N 35°12' E 139°46'510.8
2018-Feb-19 07:01N 35°18' E 139°45'510.8
2018-Feb-19 06:30N 35°23' E 139°42'510.8
2018-Feb-19 06:00N 35°27' E 139°47'611.8
2018-Feb-19 05:30N 35°30' E 139°53'611.9
2018-Feb-19 05:00N 35°31' E 139°60'2 4.4
2018-Feb-19 04:30N 35°31' E 140°02'0 0.0
2018-Feb-19 03:58N 35°31' E 140°02'0 0.0
2018-Feb-19 03:30N 35°31' E 140°02'0 0.0
2018-Feb-19 03:00N 35°31' E 140°02'0 0.0
2018-Feb-19 02:28N 35°31' E 140°02'0 0.0
2018-Feb-19 01:53N 35°31' E 140°02'0 0.0
2018-Feb-19 01:30N 35°31' E 140°02'0 0.0
2018-Feb-19 01:01N 35°31' E 140°02'0 0.0
2018-Feb-19 00:27N 35°31' E 140°02'0 0.0
2018-Feb-19 00:00N 35°31' E 140°02'0 0.0
2018-Feb-18 23:25N 35°31' E 140°02'2 4.4
2018-Feb-18 23:00N 35°31' E 140°00'3 6.1
2018-Feb-18 22:29N 35°30' E 139°57'2 4.5
2018-Feb-18 22:00N 35°28' E 139°55'0 0.0
2018-Feb-18 21:29N 35°28' E 139°55'0 0.0
2018-Feb-18 20:59N 35°28' E 139°55'0 0.0
2018-Feb-18 20:29N 35°28' E 139°55'0 0.0
2018-Feb-18 19:53N 35°28' E 139°55'0 0.0
2018-Feb-18 19:29N 35°28' E 139°55'0 0.0
2018-Feb-18 18:56N 35°28' E 139°55'0 0.0
2018-Feb-18 18:29N 35°28' E 139°55'0 0.0
2018-Feb-18 17:59N 35°28' E 139°55'0 0.0
2018-Feb-18 17:26N 35°28' E 139°55'0 0.0
2018-Feb-18 16:59N 35°28' E 139°55'0 0.0
2018-Feb-18 16:29N 35°28' E 139°55'0 0.0
2018-Feb-18 15:59N 35°28' E 139°55'0 0.0
2018-Feb-18 15:29N 35°28' E 139°55'0 0.0
2018-Feb-18 14:56N 35°28' E 139°55'0 0.0
2018-Feb-18 14:29N 35°28' E 139°55'0 0.0
2018-Feb-18 13:56N 35°28' E 139°55'0 0.0
2018-Feb-18 13:29N 35°28' E 139°55'0 0.0
2018-Feb-18 13:01N 35°28' E 139°55'0 0.0
2018-Feb-18 12:31N 35°28' E 139°55'0 0.0
2018-Feb-18 12:00N 35°28' E 139°55'0 0.0
2018-Feb-18 11:29N 35°28' E 139°55'0 0.0
2018-Feb-18 11:00N 35°28' E 139°55'0 0.0
2018-Feb-18 10:30N 35°28' E 139°55'0 0.5
2018-Feb-18 10:00N 35°29' E 139°54'510.2
2018-Feb-18 09:30N 35°26' E 139°49'611.5
2018-Feb-18 09:00N 35°21' E 139°45'611.2
2018-Feb-18 08:31N 35°16' E 139°46'612.3
2018-Feb-18 08:00N 35°10' E 139°46'712.4
2018-Feb-18 07:26N 35°03' E 139°42'612.6
2018-Feb-18 06:59N 34°60' E 139°37'713.5
2018-Feb-18 06:26N 34°55' E 139°30'713.5
2018-Feb-18 05:53N 34°51' E 139°22'513.9
2018-Feb-18 05:30N 34°48' E 139°18'914.2
2018-Feb-18 04:52N 34°41' E 139°10'513.5
2018-Feb-18 04:30N 34°38' E 139°05'712.9
2018-Feb-18 03:59N 34°34' E 138°59'612.5
2018-Feb-18 03:28N 34°33' E 138°51'1112.5
2018-Feb-18 02:36N 34°32' E 138°38'512.2
2018-Feb-18 02:10N 34°31' E 138°32'212.2
2018-Feb-18 01:59N 34°31' E 138°29'1112.7
2018-Feb-18 01:07N 34°31' E 138°16'16510.4
2018-Feb-17 09:17N 33°50' E 135°02'612.7
2018-Feb-17 08:50N 33°55' E 134°58'512.5
2018-Feb-17 08:24N 33°59' E 134°53'512.8
2018-Feb-17 08:00N 34°03' E 134°49'613.0
2018-Feb-17 07:30N 34°08' E 134°44'714.1
2018-Feb-17 07:00N 34°13' E 134°39'713.6
2018-Feb-17 06:30N 34°20' E 134°38'612.6
2018-Feb-17 06:00N 34°26' E 134°38'612.6
2018-Feb-17 05:30N 34°33' E 134°38'612.7
2018-Feb-17 05:00N 34°39' E 134°38'612.8
2018-Feb-17 04:30N 34°45' E 134°36'1 0.2
2018-Feb-17 00:24N 34°46' E 134°35'1 0.8
2018-Feb-16 23:16N 34°45' E 134°35'0 0.0
2018-Feb-16 22:56N 34°45' E 134°35'0 0.0
2018-Feb-16 20:29N 34°45' E 134°35'0 0.0
2018-Feb-16 19:45N 34°45' E 134°35'0 0.0
2018-Feb-16 19:18N 34°45' E 134°35'0 0.0
2018-Feb-16 18:54N 34°45' E 134°35'0 0.0
2018-Feb-16 15:44N 34°45' E 134°35'0 0.0
2018-Feb-16 15:26N 34°45' E 134°35'0 0.0
2018-Feb-16 14:53N 34°45' E 134°35'0 0.1
2018-Feb-16 14:30N 34°45' E 134°35'1 2.1
2018-Feb-16 13:59N 34°44' E 134°34'611.7
2018-Feb-16 13:28N 34°41' E 134°27'511.7
2018-Feb-16 13:00N 34°39' E 134°22'611.5
2018-Feb-16 12:29N 34°36' E 134°16'511.0
2018-Feb-16 12:00N 34°33' E 134°10'16 0.9
2018-Feb-15 18:43N 34°21' E 134°23'611.2
2018-Feb-15 18:10N 34°19' E 134°30'1 8.3
2018-Feb-15 18:00N 34°19' E 134°28'4 6.6
2018-Feb-15 17:25N 34°21' E 134°24'511.0
2018-Feb-15 16:59N 34°19' E 134°30'511.3
2018-Feb-15 16:30N 34°17' E 134°36'4 8.3
2018-Feb-15 15:59N 34°14' E 134°39'5 8.8
2018-Feb-15 15:23N 34°10' E 134°42'410.0
2018-Feb-15 15:00N 34°07' E 134°45'510.5
2018-Feb-15 14:30N 34°03' E 134°49'510.3
2018-Feb-15 13:59N 33°59' E 134°54'510.3
2018-Feb-15 13:31N 33°55' E 134°58'510.1
2018-Feb-15 13:00N 33°51' E 135°02'164 9.2
2018-Feb-14 19:08N 34°31' E 138°14'14 9.8
2018-Feb-14 17:43N 34°32' E 138°31'2 9.9
2018-Feb-14 17:30N 34°32' E 138°33'6 9.8
2018-Feb-14 16:54N 34°32' E 138°41'4 9.8
2018-Feb-14 16:30N 34°33' E 138°46'5 9.5
2018-Feb-14 16:00N 34°33' E 138°51'4 8.7
2018-Feb-14 15:30N 34°33' E 138°56'5 7.9
2018-Feb-14 14:54N 34°36' E 139°01'3 8.7
2018-Feb-14 14:30N 34°39' E 139°04'4 8.9
2018-Feb-14 14:00N 34°42' E 139°07'4 8.5
2018-Feb-14 13:30N 34°45' E 139°10'10 7.7
2018-Feb-14 12:14N 34°53' E 139°18'2 7.3
2018-Feb-14 11:59N 34°54' E 139°19'3 7.0
2018-Feb-14 11:29N 34°56' E 139°23'3 6.7
2018-Feb-14 10:59N 34°58' E 139°26'3 5.9
2018-Feb-14 10:30N 34°60' E 139°29'3 6.3
2018-Feb-14 09:59N 35°01' E 139°32'  
Track history (hours):
 
Tides and Currents Weather Stations Pressure Air Temp Water Temp Dewpoint Dewpoint Depression Visibility Wind Speed Wind Dir Waves Ship Positions

Hiyoshi Maru No21

Last reported at 2018-Feb-24 09:41 UTC. Time now 2018-Feb-24 14:38 UTC.
Position N 33°52' E 135°00'.

Length 72 m; draft 4 m.

Type: Tanker. MMSI: 432294000.

Date/timePositionNaut miles runAvg speedWind from/ knotsBaromVisibWave heightAir tempDewpointWater temp
2018-Feb-24 09:41N 33°52' E 135°00'312.8
2018-Feb-24 09:27N 33°54' E 134°58'612.7
2018-Feb-24 09:00N 33°58' E 134°54'612.8
2018-Feb-24 08:30N 34°03' E 134°49'713.0
2018-Feb-24 08:00N 34°09' E 134°44'714.0
2018-Feb-24 07:30N 34°14' E 134°39'612.1
2018-Feb-24 07:00N 34°18' E 134°33'612.2
2018-Feb-24 06:30N 34°20' E 134°26'7 0.2
2018-Feb-23 02:19N 34°18' E 134°34'412.4
2018-Feb-23 02:00N 34°16' E 134°38'912.5
2018-Feb-23 01:19N 34°09' E 134°43'411.5
2018-Feb-23 01:00N 34°06' E 134°46'611.6
2018-Feb-23 00:29N 34°02' E 134°51'611.6
2018-Feb-23 00:00N 33°58' E 134°55'611.7
2018-Feb-22 23:29N 33°53' E 135°00'103 7.9
2018-Feb-22 10:31N 34°38' E 136°52'011.1
2018-Feb-22 10:30N 34°39' E 136°52'711.7
2018-Feb-22 09:55N 34°44' E 136°47'511.9
2018-Feb-22 09:31N 34°49' E 136°45'611.9
2018-Feb-22 09:00N 34°54' E 136°43'5 9.5
2018-Feb-22 08:30N 34°59' E 136°40'0 0.1
2018-Feb-22 08:00N 34°59' E 136°40'0 0.0
2018-Feb-22 07:30N 34°59' E 136°40'0 0.0
2018-Feb-22 07:01N 34°59' E 136°40'0 0.0
2018-Feb-22 06:30N 34°59' E 136°40'0 0.0
2018-Feb-22 06:00N 34°59' E 136°40'0 0.0
2018-Feb-22 05:30N 34°59' E 136°40'0 0.0
2018-Feb-22 05:00N 34°59' E 136°40'0 0.0
2018-Feb-22 04:31N 34°59' E 136°40'0 0.0
2018-Feb-22 04:01N 34°59' E 136°40'1 1.7
2018-Feb-22 03:31N 34°58' E 136°40'0 0.7
2018-Feb-22 03:00N 34°58' E 136°40'0 0.0
2018-Feb-22 02:30N 34°58' E 136°40'0 0.0
2018-Feb-22 02:00N 34°58' E 136°40'0 0.0
2018-Feb-22 01:30N 34°58' E 136°40'0 0.0
2018-Feb-22 01:00N 34°58' E 136°40'0 0.0
2018-Feb-22 00:30N 34°58' E 136°40'0 0.0
2018-Feb-22 00:01N 34°58' E 136°40'0 0.0
2018-Feb-21 23:30N 34°58' E 136°40'0 0.9
2018-Feb-21 23:00N 34°57' E 136°41'611.7
2018-Feb-21 22:30N 34°52' E 136°44'612.4
2018-Feb-21 22:00N 34°46' E 136°47'612.1
2018-Feb-21 21:31N 34°41' E 136°51'103 8.0
2018-Feb-21 08:35N 33°52' E 135°01'113.1
2018-Feb-21 08:29N 33°53' E 134°60'612.4
2018-Feb-21 08:01N 33°57' E 134°55'712.7
2018-Feb-21 07:26N 34°02' E 134°49'612.8
2018-Feb-21 06:59N 34°07' E 134°45'613.8
2018-Feb-21 06:31N 34°12' E 134°40'713.2
2018-Feb-21 06:00N 34°17' E 134°35'612.4
2018-Feb-21 05:30N 34°19' E 134°28'612.2
2018-Feb-21 05:00N 34°21' E 134°21'4 0.3
2018-Feb-20 11:47N 34°20' E 134°26'412.1
2018-Feb-20 11:26N 34°19' E 134°31'512.6
2018-Feb-20 11:00N 34°17' E 134°37'712.1
2018-Feb-20 10:24N 34°11' E 134°41'512.0
2018-Feb-20 09:59N 34°07' E 134°45'612.0
2018-Feb-20 09:30N 34°03' E 134°50'611.9
2018-Feb-20 09:00N 33°58' E 134°55'611.7
2018-Feb-20 08:30N 33°54' E 134°60'184 9.9
2018-Feb-19 13:57N 34°32' E 138°37'610.5
2018-Feb-19 13:24N 34°33' E 138°44'510.5
2018-Feb-19 12:56N 34°33' E 138°50'4 9.8
2018-Feb-19 12:30N 34°33' E 138°55'610.2
2018-Feb-19 11:58N 34°36' E 139°01'612.3
2018-Feb-19 11:28N 34°41' E 139°05'612.5
2018-Feb-19 11:00N 34°46' E 139°10'812.0
2018-Feb-19 10:18N 34°52' E 139°16'411.4
2018-Feb-19 09:55N 34°55' E 139°20'811.4
2018-Feb-19 09:15N 34°59' E 139°28'410.9
2018-Feb-19 08:53N 35°02' E 139°32'411.4
2018-Feb-19 08:30N 35°04' E 139°36'611.9
2018-Feb-19 08:00N 35°07' E 139°42'611.8
2018-Feb-19 07:29N 35°12' E 139°46'510.8
2018-Feb-19 07:01N 35°18' E 139°45'510.8
2018-Feb-19 06:30N 35°23' E 139°42'510.8
2018-Feb-19 06:00N 35°27' E 139°47'611.8
2018-Feb-19 05:30N 35°30' E 139°53'611.9
2018-Feb-19 05:00N 35°31' E 139°60'2 4.4
2018-Feb-19 04:30N 35°31' E 140°02'0 0.0
2018-Feb-19 03:58N 35°31' E 140°02'0 0.0
2018-Feb-19 03:30N 35°31' E 140°02'0 0.0
2018-Feb-19 03:00N 35°31' E 140°02'0 0.0
2018-Feb-19 02:28N 35°31' E 140°02'0 0.0
2018-Feb-19 01:53N 35°31' E 140°02'0 0.0
2018-Feb-19 01:30N 35°31' E 140°02'0 0.0
2018-Feb-19 01:01N 35°31' E 140°02'0 0.0
2018-Feb-19 00:27N 35°31' E 140°02'0 0.0
2018-Feb-19 00:00N 35°31' E 140°02'0 0.0
2018-Feb-18 23:25N 35°31' E 140°02'2 4.4
2018-Feb-18 23:00N 35°31' E 140°00'3 6.1
2018-Feb-18 22:29N 35°30' E 139°57'2 4.5
2018-Feb-18 22:00N 35°28' E 139°55'0 0.0
2018-Feb-18 21:29N 35°28' E 139°55'0 0.0
2018-Feb-18 20:59N 35°28' E 139°55'0 0.0
2018-Feb-18 20:29N 35°28' E 139°55'0 0.0
2018-Feb-18 19:53N 35°28' E 139°55'0 0.0
2018-Feb-18 19:29N 35°28' E 139°55'0 0.0
2018-Feb-18 18:56N 35°28' E 139°55'0 0.0
2018-Feb-18 18:29N 35°28' E 139°55'0 0.0
2018-Feb-18 17:59N 35°28' E 139°55'0 0.0
2018-Feb-18 17:26N 35°28' E 139°55'0 0.0
2018-Feb-18 16:59N 35°28' E 139°55'0 0.0
2018-Feb-18 16:29N 35°28' E 139°55'0 0.0
2018-Feb-18 15:59N 35°28' E 139°55'0 0.0
2018-Feb-18 15:29N 35°28' E 139°55'0 0.0
2018-Feb-18 14:56N 35°28' E 139°55'0 0.0
2018-Feb-18 14:29N 35°28' E 139°55'0 0.0
2018-Feb-18 13:56N 35°28' E 139°55'0 0.0
2018-Feb-18 13:29N 35°28' E 139°55'0 0.0
2018-Feb-18 13:01N 35°28' E 139°55'0 0.0
2018-Feb-18 12:31N 35°28' E 139°55'0 0.0
2018-Feb-18 12:00N 35°28' E 139°55'0 0.0
2018-Feb-18 11:29N 35°28' E 139°55'0 0.0
2018-Feb-18 11:00N 35°28' E 139°55'0 0.0
2018-Feb-18 10:30N 35°28' E 139°55'0 0.5
2018-Feb-18 10:00N 35°29' E 139°54'510.2
2018-Feb-18 09:30N 35°26' E 139°49'611.5
2018-Feb-18 09:00N 35°21' E 139°45'611.2
2018-Feb-18 08:31N 35°16' E 139°46'612.3
2018-Feb-18 08:00N 35°10' E 139°46'712.4
2018-Feb-18 07:26N 35°03' E 139°42'612.6
2018-Feb-18 06:59N 34°60' E 139°37'713.5
2018-Feb-18 06:26N 34°55' E 139°30'713.5
2018-Feb-18 05:53N 34°51' E 139°22'513.9
2018-Feb-18 05:30N 34°48' E 139°18'914.2
2018-Feb-18 04:52N 34°41' E 139°10'513.5
2018-Feb-18 04:30N 34°38' E 139°05'712.9
2018-Feb-18 03:59N 34°34' E 138°59'612.5
2018-Feb-18 03:28N 34°33' E 138°51'1112.5
2018-Feb-18 02:36N 34°32' E 138°38'512.2
2018-Feb-18 02:10N 34°31' E 138°32'212.2
2018-Feb-18 01:59N 34°31' E 138°29'1112.7
2018-Feb-18 01:07N 34°31' E 138°16'16510.4
2018-Feb-17 09:17N 33°50' E 135°02'612.7
2018-Feb-17 08:50N 33°55' E 134°58'512.5
2018-Feb-17 08:24N 33°59' E 134°53'512.8
2018-Feb-17 08:00N 34°03' E 134°49'613.0
2018-Feb-17 07:30N 34°08' E 134°44'714.1
2018-Feb-17 07:00N 34°13' E 134°39'713.6
2018-Feb-17 06:30N 34°20' E 134°38'612.6
2018-Feb-17 06:00N 34°26' E 134°38'612.6
2018-Feb-17 05:30N 34°33' E 134°38'612.7
2018-Feb-17 05:00N 34°39' E 134°38'612.8
2018-Feb-17 04:30N 34°45' E 134°36'1 0.2
2018-Feb-17 00:24N 34°46' E 134°35'1 0.8
2018-Feb-16 23:16N 34°45' E 134°35'0 0.0
2018-Feb-16 22:56N 34°45' E 134°35'0 0.0
2018-Feb-16 20:29N 34°45' E 134°35'0 0.0
2018-Feb-16 19:45N 34°45' E 134°35'0 0.0
2018-Feb-16 19:18N 34°45' E 134°35'0 0.0
2018-Feb-16 18:54N 34°45' E 134°35'0 0.0
2018-Feb-16 15:44N 34°45' E 134°35'0 0.0
2018-Feb-16 15:26N 34°45' E 134°35'0 0.0
2018-Feb-16 14:53N 34°45' E 134°35'0 0.1
2018-Feb-16 14:30N 34°45' E 134°35'1 2.1
2018-Feb-16 13:59N 34°44' E 134°34'611.7
2018-Feb-16 13:28N 34°41' E 134°27'511.7
2018-Feb-16 13:00N 34°39' E 134°22'611.5
2018-Feb-16 12:29N 34°36' E 134°16'511.0
2018-Feb-16 12:00N 34°33' E 134°10'16 0.9
2018-Feb-15 18:43N 34°21' E 134°23'611.2
2018-Feb-15 18:10N 34°19' E 134°30'1 8.3
2018-Feb-15 18:00N 34°19' E 134°28'4 6.6
2018-Feb-15 17:25N 34°21' E 134°24'511.0
2018-Feb-15 16:59N 34°19' E 134°30'511.3
2018-Feb-15 16:30N 34°17' E 134°36'4 8.3
2018-Feb-15 15:59N 34°14' E 134°39'5 8.8
2018-Feb-15 15:23N 34°10' E 134°42'410.0
2018-Feb-15 15:00N 34°07' E 134°45'510.5
2018-Feb-15 14:30N 34°03' E 134°49'510.3
2018-Feb-15 13:59N 33°59' E 134°54'510.3
2018-Feb-15 13:31N 33°55' E 134°58'510.1
2018-Feb-15 13:00N 33°51' E 135°02'164 9.2
2018-Feb-14 19:08N 34°31' E 138°14'14 9.8
2018-Feb-14 17:43N 34°32' E 138°31'2 9.9
2018-Feb-14 17:30N 34°32' E 138°33'6 9.8
2018-Feb-14 16:54N 34°32' E 138°41'4 9.8
2018-Feb-14 16:30N 34°33' E 138°46'5 9.5
2018-Feb-14 16:00N 34°33' E 138°51'4 8.7
2018-Feb-14 15:30N 34°33' E 138°56'5 7.9
2018-Feb-14 14:54N 34°36' E 139°01'3 8.7
2018-Feb-14 14:30N 34°39' E 139°04'4 8.9
2018-Feb-14 14:00N 34°42' E 139°07'4 8.5
2018-Feb-14 13:30N 34°45' E 139°10'10 7.7
2018-Feb-14 12:14N 34°53' E 139°18'2 7.3
2018-Feb-14 11:59N 34°54' E 139°19'3 7.0
2018-Feb-14 11:29N 34°56' E 139°23'3 6.7
2018-Feb-14 10:59N 34°58' E 139°26'3 5.9
2018-Feb-14 10:30N 34°60' E 139°29'3 6.3
2018-Feb-14 09:59N 35°01' E 139°32'  

Dump ship's entire track history